Time;durP1;ratioP1;P1;durP2;ratioP2;P2;SDS_P1;SDS_P2;PMS_P1;PMS_P2;Temp;Humidity;BMP_temperature;BMP_pressure;BME280_temperature;BME280_humidity;BME280_pressure;Samples;Min_cycle;Max_cycle;Signal;HPM_P1;HPM_P2
2023/02/14 00:01:43;;;;;;;55.87;32.33;;;;;;;;;;4407188;32;317672;-89
2023/02/14 00:04:10;;;;;;;54.73;30.13;;;;;;;;;;4406053;32;318028;-88
2023/02/14 00:06:37;;;;;;;51.87;31.67;;;;;;;;;;4392899;32;417699;-88
2023/02/14 00:09:05;;;;;;;64.47;37.20;;;;;;;;;;4407662;32;318514;-89
2023/02/14 00:11:32;;;;;;;77.43;46.80;;;;;;;;;;4396174;32;334049;-89
2023/02/14 00:16:45;;;;;;;95.53;51.73;;;;;;;;;;4378495;32;387888;-89
2023/02/14 00:19:14;;;;;;;127.30;65.30;;;;;;;;;;4393177;32;318453;-89
2023/02/14 00:21:41;;;;;;;129.93;71.50;;;;;;;;;;4407608;32;318776;-89
2023/02/14 00:24:10;;;;;;;132.13;70.80;;;;;;;;;;4406362;32;318812;-88
2023/02/14 00:26:38;;;;;;;117.60;72.53;;;;;;;;;;4384954;32;418244;-89
2023/02/14 00:29:07;;;;;;;120.30;67.83;;;;;;;;;;4404852;32;318687;-89
2023/02/14 00:31:34;;;;;;;91.77;52.93;;;;;;;;;;4397017;32;318558;-89
2023/02/14 00:34:02;;;;;;;104.13;57.53;;;;;;;;;;4406698;32;317728;-89
2023/02/14 00:36:28;;;;;;;97.23;54.20;;;;;;;;;;4397093;32;324510;-89
2023/02/14 00:38:55;;;;;;;104.22;62.72;;;;;;;;;;4405799;32;318347;-88
2023/02/14 00:41:22;;;;;;;98.80;55.93;;;;;;;;;;4396225;32;318574;-88
2023/02/14 00:43:51;;;;;;;101.90;56.83;;;;;;;;;;4406105;32;318385;-88
2023/02/14 00:46:21;;;;;;;99.93;52.83;;;;;;;;;;4394999;32;350633;-88
2023/02/14 00:48:48;;;;;;;105.83;54.83;;;;;;;;;;4405331;32;325157;-88
2023/02/14 00:51:17;;;;;;;119.67;58.73;;;;;;;;;;4395202;32;338596;-88
2023/02/14 00:53:44;;;;;;;122.93;62.13;;;;;;;;;;4405314;32;348989;-89
2023/02/14 00:56:11;;;;;;;120.40;60.97;;;;;;;;;;4396082;32;318589;-89
2023/02/14 00:58:38;;;;;;;124.63;59.47;;;;;;;;;;4406054;32;319222;-89
2023/02/14 01:01:05;;;;;;;118.87;60.40;;;;;;;;;;4404665;32;318808;-89
2023/02/14 01:03:33;;;;;;;135.03;66.17;;;;;;;;;;4395045;32;318966;-89
2023/02/14 01:06:00;;;;;;;141.90;67.90;;;;;;;;;;4404556;32;319261;-89
2023/02/14 01:08:27;;;;;;;132.30;74.87;;;;;;;;;;4394652;32;319500;-89
2023/02/14 01:10:54;;;;;;;156.33;79.50;;;;;;;;;;4404343;32;319829;-89
2023/02/14 01:13:21;;;;;;;163.80;81.33;;;;;;;;;;4395523;32;319374;-90
2023/02/14 01:15:50;;;;;;;153.07;82.27;;;;;;;;;;4403921;32;344907;-89
2023/02/14 01:18:18;;;;;;;152.67;80.40;;;;;;;;;;4396170;32;318752;-88
2023/02/14 01:20:47;;;;;;;160.67;80.10;;;;;;;;;;4406877;32;318536;-88
2023/02/14 01:23:13;;;;;;;151.00;79.13;;;;;;;;;;4393734;32;389895;-89
2023/02/14 01:25:40;;;;;;;142.13;79.00;;;;;;;;;;4405293;32;319372;-88
2023/02/14 01:28:07;;;;;;;156.57;79.80;;;;;;;;;;4404953;32;319196;-88
2023/02/14 01:30:35;;;;;;;156.87;81.07;;;;;;;;;;4393679;32;319176;-89
2023/02/14 01:33:02;;;;;;;149.80;77.83;;;;;;;;;;4404842;32;319055;-88
2023/02/14 01:35:29;;;;;;;146.43;77.17;;;;;;;;;;4394148;32;318614;-89
2023/02/14 01:37:57;;;;;;;141.93;75.53;;;;;;;;;;4404245;32;319327;-89
2023/02/14 01:40:24;;;;;;;143.73;78.43;;;;;;;;;;4393706;32;318861;-89
2023/02/14 01:42:50;;;;;;;151.93;76.63;;;;;;;;;;4404809;32;345180;-89
2023/02/14 01:45:20;;;;;;;141.57;74.60;;;;;;;;;;4394817;32;319356;-89
2023/02/14 01:47:50;;;;;;;127.50;69.33;;;;;;;;;;4404095;32;319083;-89
2023/02/14 01:50:21;;;;;;;131.20;68.00;;;;;;;;;;4395038;32;318516;-88
2023/02/14 01:52:54;;;;;;;102.70;56.30;;;;;;;;;;4404951;32;319607;-89
2023/02/14 01:55:26;;;;;;;124.43;71.82;;;;;;;;;;4394273;32;319598;-89
2023/02/14 01:57:58;;;;;;;123.47;64.93;;;;;;;;;;4404904;32;319635;-89
2023/02/14 02:03:11;;;;;;;149.07;77.80;;;;;;;;;;4402713;32;339728;-88
2023/02/14 02:05:42;;;;;;;152.03;76.37;;;;;;;;;;4392047;32;417458;-89
2023/02/14 02:08:09;;;;;;;162.87;81.63;;;;;;;;;;4404700;32;319650;-88
2023/02/14 02:10:37;;;;;;;157.10;80.83;;;;;;;;;;4394584;32;319275;-88
2023/02/14 02:13:07;;;;;;;159.60;80.83;;;;;;;;;;4404460;32;319296;-88
2023/02/14 02:15:50;;;;;;;184.17;93.13;;;;;;;;;;4393643;32;318859;-88
2023/02/14 02:18:24;;;;;;;199.37;97.90;;;;;;;;;;4393460;32;319123;-88
2023/02/14 02:21:20;;;;;;;189.13;96.30;;;;;;;;;;4403316;32;319198;-88
2023/02/14 02:24:03;;;;;;;191.57;97.63;;;;;;;;;;4390279;32;419366;-88
2023/02/14 02:27:28;;;;;;;203.13;98.13;;;;;;;;;;4394141;32;319585;-88
2023/02/14 02:30:45;;;;;;;194.50;101.97;;;;;;;;;;4391321;32;419392;-88
2023/02/14 02:33:55;;;;;;;200.33;100.03;;;;;;;;;;4389409;32;420208;-88
2023/02/14 02:36:45;;;;;;;187.70;96.03;;;;;;;;;;4394353;32;320710;-88
2023/02/14 02:39:30;;;;;;;205.60;99.23;;;;;;;;;;4370685;32;319499;-87
2023/02/14 02:42:06;;;;;;;210.47;108.53;;;;;;;;;;4403040;32;318602;-88
2023/02/14 02:44:43;;;;;;;218.03;108.47;;;;;;;;;;4392850;32;320213;-88
2023/02/14 02:47:17;;;;;;;194.60;102.37;;;;;;;;;;4403917;32;320235;-88
2023/02/14 02:58:19;;;;;;;145.53;80.50;;;;;;;;;;4392713;32;318607;-88
2023/02/14 03:00:48;;;;;;;152.37;79.30;;;;;;;;;;4402549;32;319224;-88
2023/02/14 03:06:00;;;;;;;135.10;70.47;;;;;;;;;;4403545;32;319205;-89
2023/02/14 03:08:28;;;;;;;126.87;67.97;;;;;;;;;;4393894;32;319363;-88
2023/02/14 03:10:55;;;;;;;120.67;65.43;;;;;;;;;;4404419;32;319469;-89
2023/02/14 03:13:57;;;;;;;121.50;62.10;;;;;;;;;;4392508;32;319637;-89
2023/02/14 03:16:35;;;;;;;100.33;55.53;;;;;;;;;;4392312;32;348291;-88
2023/02/14 03:19:32;;;;;;;94.47;51.53;;;;;;;;;;4403981;32;319501;-89
2023/02/14 03:22:02;;;;;;;111.30;57.27;;;;;;;;;;4381724;32;417493;-88
2023/02/14 03:24:41;;;;;;;108.73;57.17;;;;;;;;;;4393938;32;319030;-88
2023/02/14 03:27:15;;;;;;;108.63;58.77;;;;;;;;;;4404108;32;319323;-90
2023/02/14 03:29:51;;;;;;;108.37;58.83;;;;;;;;;;4390864;32;422435;-88
2023/02/14 03:32:27;;;;;;;104.77;60.77;;;;;;;;;;4392905;32;319755;-89
2023/02/14 03:35:01;;;;;;;101.53;57.07;;;;;;;;;;4403850;32;318503;-89
2023/02/14 03:37:33;;;;;;;121.80;60.07;;;;;;;;;;4393400;32;319474;-88
2023/02/14 03:40:09;;;;;;;123.23;61.13;;;;;;;;;;4403961;32;319385;-88
2023/02/14 03:42:40;;;;;;;123.37;62.40;;;;;;;;;;4390233;32;419162;-88
2023/02/14 03:45:10;;;;;;;124.53;66.27;;;;;;;;;;4403941;32;318849;-87
2023/02/14 03:47:40;;;;;;;120.53;66.27;;;;;;;;;;4390660;32;417081;-88
2023/02/14 03:50:10;;;;;;;140.87;70.97;;;;;;;;;;4402379;32;319356;-88
2023/02/14 03:52:38;;;;;;;134.57;67.90;;;;;;;;;;4389818;32;420444;-88
2023/02/14 03:55:09;;;;;;;119.13;63.90;;;;;;;;;;4403771;32;318590;-88
2023/02/14 03:57:43;;;;;;;125.70;67.80;;;;;;;;;;4389366;32;418902;-88
2023/02/14 04:00:12;;;;;;;136.10;70.83;;;;;;;;;;4402165;32;319479;-88
2023/02/14 04:02:42;;;;;;;138.87;70.10;;;;;;;;;;4390374;32;418200;-88
2023/02/14 04:05:13;;;;;;;151.73;78.47;;;;;;;;;;4406574;32;319343;-88
2023/02/14 04:07:46;;;;;;;154.97;82.67;;;;;;;;;;4393483;32;418628;-88
2023/02/14 04:10:15;;;;;;;154.37;81.67;;;;;;;;;;4396537;32;319394;-88
2023/02/14 04:12:42;;;;;;;155.43;81.53;;;;;;;;;;4405912;32;319221;-87
2023/02/14 04:15:09;;;;;;;159.30;84.90;;;;;;;;;;4406306;32;318326;-88
2023/02/14 04:20:20;;;;;;;164.20;80.67;;;;;;;;;;4396196;32;318611;-87
2023/02/14 04:22:47;;;;;;;175.80;86.83;;;;;;;;;;4404765;32;319462;-88
2023/02/14 04:25:16;;;;;;;173.17;91.27;;;;;;;;;;4394349;32;318888;-88
2023/02/14 04:27:43;;;;;;;161.57;86.77;;;;;;;;;;4405866;32;318503;-88
2023/02/14 04:30:11;;;;;;;158.30;82.53;;;;;;;;;;4405939;32;319016;-88
2023/02/14 04:32:38;;;;;;;144.83;81.87;;;;;;;;;;4392989;32;418573;-88
2023/02/14 04:35:06;;;;;;;148.13;79.87;;;;;;;;;;4405791;32;319267;-87
2023/02/14 04:37:33;;;;;;;179.53;87.03;;;;;;;;;;4394922;32;318484;-88
2023/02/14 04:40:00;;;;;;;152.83;83.83;;;;;;;;;;4405603;32;318192;-88
2023/02/14 04:42:28;;;;;;;162.07;88.67;;;;;;;;;;4395755;32;319448;-88
2023/02/14 04:44:55;;;;;;;180.67;93.90;;;;;;;;;;4405378;32;318609;-88
2023/02/14 04:47:21;;;;;;;158.73;87.23;;;;;;;;;;4396759;32;319472;-87
2023/02/14 04:49:48;;;;;;;177.40;90.70;;;;;;;;;;4405436;32;319465;-88
2023/02/14 04:52:15;;;;;;;155.00;84.00;;;;;;;;;;4394998;32;319556;-88
2023/02/14 04:54:42;;;;;;;141.43;77.53;;;;;;;;;;4404064;32;318472;-88
2023/02/14 04:57:09;;;;;;;135.10;74.07;;;;;;;;;;4404729;32;319215;-88
2023/02/14 04:59:37;;;;;;;137.30;75.33;;;;;;;;;;4395414;32;319363;-89
2023/02/14 05:02:04;;;;;;;152.40;75.30;;;;;;;;;;4405211;32;339506;-89
2023/02/14 05:04:31;;;;;;;166.47;83.83;;;;;;;;;;4395340;32;319124;-88
2023/02/14 05:06:57;;;;;;;193.73;94.17;;;;;;;;;;4405428;32;318682;-88
2023/02/14 05:09:24;;;;;;;203.63;104.07;;;;;;;;;;4394476;32;318732;-88
2023/02/14 05:11:51;;;;;;;204.67;105.27;;;;;;;;;;4404326;32;323364;-88
2023/02/14 05:14:18;;;;;;;199.80;101.00;;;;;;;;;;4393920;32;319556;-87
2023/02/14 05:16:46;;;;;;;209.10;103.63;;;;;;;;;;4405541;32;320849;-88
2023/02/14 05:19:13;;;;;;;203.43;102.43;;;;;;;;;;4393053;32;321104;-88
2023/02/14 05:21:40;;;;;;;183.43;96.07;;;;;;;;;;4406648;32;320508;-88
2023/02/14 05:24:07;;;;;;;199.07;103.97;;;;;;;;;;4406002;32;319298;-88
2023/02/14 05:26:34;;;;;;;186.73;97.73;;;;;;;;;;4397206;32;320618;-88
2023/02/14 05:29:00;;;;;;;192.17;94.10;;;;;;;;;;4406199;32;318644;-88
2023/02/14 05:31:27;;;;;;;179.80;91.67;;;;;;;;;;4395406;32;319141;-88
2023/02/14 05:33:55;;;;;;;175.53;96.90;;;;;;;;;;4408646;32;318733;-88
2023/02/14 05:36:22;;;;;;;195.93;105.40;;;;;;;;;;4396682;32;318689;-88
2023/02/14 05:38:49;;;;;;;213.20;105.07;;;;;;;;;;4405993;32;319571;-88
2023/02/14 05:41:16;;;;;;;177.27;89.60;;;;;;;;;;4394349;32;320305;-88
2023/02/14 05:43:43;;;;;;;179.90;90.20;;;;;;;;;;4403885;32;347286;-88
2023/02/14 05:46:09;;;;;;;173.37;91.80;;;;;;;;;;4404947;32;318711;-89
2023/02/14 05:48:36;;;;;;;183.33;98.37;;;;;;;;;;4391072;32;417495;-88
2023/02/14 05:51:07;;;;;;;158.37;81.43;;;;;;;;;;4403836;32;319354;-88
2023/02/14 05:53:34;;;;;;;143.90;80.93;;;;;;;;;;4394913;32;319222;-88
2023/02/14 05:56:01;;;;;;;119.67;61.33;;;;;;;;;;4405340;32;319225;-87
2023/02/14 05:58:28;;;;;;;117.37;63.23;;;;;;;;;;4394995;32;319598;-89
2023/02/14 06:00:56;;;;;;;122.77;68.90;;;;;;;;;;4405005;32;318497;-88
2023/02/14 06:03:23;;;;;;;171.60;80.97;;;;;;;;;;4393759;32;318567;-88
2023/02/14 06:05:50;;;;;;;198.97;94.77;;;;;;;;;;4403220;32;358183;-88
2023/02/14 06:08:20;;;;;;;177.17;88.77;;;;;;;;;;4387823;32;319126;-88
2023/02/14 06:10:58;;;;;;;165.57;89.00;;;;;;;;;;4402247;32;318042;-88
2023/02/14 06:13:25;;;;;;;215.77;105.73;;;;;;;;;;4392836;32;319382;-88
2023/02/14 06:15:52;;;;;;;219.27;103.00;;;;;;;;;;4402460;32;335013;-88
2023/02/14 06:18:19;;;;;;;178.67;99.47;;;;;;;;;;4397763;32;320401;-88
2023/02/14 06:20:46;;;;;;;227.27;110.23;;;;;;;;;;4407806;32;318591;-89
2023/02/14 06:23:13;;;;;;;180.57;93.50;;;;;;;;;;4398547;32;320745;-86
2023/02/14 06:25:41;;;;;;;187.00;98.47;;;;;;;;;;4405391;32;319394;-88
2023/02/14 06:28:07;;;;;;;190.93;103.37;;;;;;;;;;4404125;32;318426;-89
2023/02/14 06:30:34;;;;;;;224.80;113.17;;;;;;;;;;4393162;32;320893;-88
2023/02/14 06:33:01;;;;;;;222.03;115.07;;;;;;;;;;4403028;32;320313;-88
2023/02/14 06:35:28;;;;;;;258.27;154.10;;;;;;;;;;4391631;32;346922;-88
2023/02/14 06:37:55;;;;;;;230.67;121.10;;;;;;;;;;4403691;32;319916;-89
2023/02/14 06:40:22;;;;;;;222.47;119.43;;;;;;;;;;4393580;32;320148;-88
2023/02/14 06:42:51;;;;;;;239.70;126.00;;;;;;;;;;4402519;32;319461;-88
2023/02/14 06:45:20;;;;;;;217.67;123.73;;;;;;;;;;4393652;32;320829;-87
2023/02/14 06:47:47;;;;;;;222.90;123.43;;;;;;;;;;4403848;32;320270;-88
2023/02/14 06:50:17;;;;;;;243.93;131.33;;;;;;;;;;4393554;32;320686;-87
2023/02/14 06:52:43;;;;;;;246.80;142.93;;;;;;;;;;4403147;32;319699;-86
2023/02/14 06:55:12;;;;;;;277.33;155.20;;;;;;;;;;4402099;32;319614;-87
2023/02/14 06:57:39;;;;;;;294.57;156.27;;;;;;;;;;4374209;32;419485;-87
2023/02/14 07:00:08;;;;;;;288.97;155.07;;;;;;;;;;4388001;32;320442;-88
2023/02/14 07:02:35;;;;;;;279.17;152.77;;;;;;;;;;4379508;32;319850;-89
2023/02/14 07:05:02;;;;;;;272.90;154.90;;;;;;;;;;4387534;32;320372;-88
2023/02/14 07:07:29;;;;;;;252.83;142.47;;;;;;;;;;4377955;32;319637;-90
2023/02/14 07:09:56;;;;;;;228.10;128.97;;;;;;;;;;4388859;32;319743;-88
2023/02/14 07:12:23;;;;;;;220.47;115.23;;;;;;;;;;4378954;32;320369;-88
2023/02/14 07:14:50;;;;;;;197.47;108.93;;;;;;;;;;4388921;32;320431;-88
2023/02/14 07:17:18;;;;;;;168.33;96.73;;;;;;;;;;4378568;32;320267;-87
2023/02/14 07:19:48;;;;;;;182.20;98.73;;;;;;;;;;4388765;32;318867;-88
2023/02/14 07:22:14;;;;;;;208.00;115.60;;;;;;;;;;4378279;32;318567;-88
2023/02/14 07:24:42;;;;;;;233.20;138.00;;;;;;;;;;4387387;32;320119;-88
2023/02/14 07:27:08;;;;;;;249.57;139.27;;;;;;;;;;4387607;32;319932;-90
2023/02/14 07:29:36;;;;;;;276.67;158.77;;;;;;;;;;4377342;32;320509;-88
2023/02/14 07:32:03;;;;;;;282.93;159.87;;;;;;;;;;4389149;32;320513;-89
2023/02/14 07:34:31;;;;;;;264.63;146.40;;;;;;;;;;4378267;32;340498;-88
2023/02/14 07:36:58;;;;;;;240.80;139.73;;;;;;;;;;4387876;32;320348;-88
2023/02/14 07:39:25;;;;;;;247.37;136.97;;;;;;;;;;4378848;32;320631;-88
2023/02/14 07:41:52;;;;;;;254.90;140.80;;;;;;;;;;4390413;32;319685;-88
2023/02/14 07:44:19;;;;;;;393.17;189.93;;;;;;;;;;4381440;32;353556;-88
2023/02/14 07:46:46;;;;;;;300.77;164.33;;;;;;;;;;4390634;32;319586;-88
2023/02/14 07:49:13;;;;;;;175.93;99.57;;;;;;;;;;4393740;32;321624;-89
2023/02/14 07:51:41;;;;;;;182.80;101.13;;;;;;;;;;4406329;32;318867;-88
2023/02/14 07:54:08;;;;;;;234.73;140.70;;;;;;;;;;4406981;32;319834;-88
2023/02/14 07:56:35;;;;;;;165.13;99.10;;;;;;;;;;4396382;32;320468;-88
2023/02/14 07:59:02;;;;;;;148.70;87.77;;;;;;;;;;4406788;32;318757;-88
2023/02/14 08:01:28;;;;;;;155.83;92.07;;;;;;;;;;4395780;32;318531;-88
2023/02/14 08:03:55;;;;;;;146.27;81.33;;;;;;;;;;4405149;32;318743;-88
2023/02/14 08:06:24;;;;;;;147.43;88.13;;;;;;;;;;4396155;32;318826;-88
2023/02/14 08:08:52;;;;;;;137.43;82.60;;;;;;;;;;4404894;32;319291;-88
2023/02/14 08:14:00;;;;;;;136.80;79.33;;;;;;;;;;4403360;32;346093;-88
2023/02/14 08:16:27;;;;;;;146.63;84.23;;;;;;;;;;4394505;32;318673;-89
2023/02/14 08:18:54;;;;;;;168.00;94.07;;;;;;;;;;4391954;32;318834;-91
2023/02/14 08:21:21;;;;;;;232.77;104.67;;;;;;;;;;4396568;32;319227;-83
2023/02/14 08:23:48;;;;;;;163.67;78.93;;;;;;;;;;4403768;32;320462;-84
2023/02/14 08:26:16;;;;;;;154.17;84.43;;;;;;;;;;4394524;32;318696;-88
2023/02/14 08:28:43;;;;;;;220.40;101.63;;;;;;;;;;4408093;32;318561;-89
2023/02/14 08:31:10;;;;;;;113.33;69.20;;;;;;;;;;4406851;32;319830;-88
2023/02/14 08:33:37;;;;;;;136.87;68.93;;;;;;;;;;4387658;32;418086;-88
2023/02/14 08:36:05;;;;;;;141.93;77.70;;;;;;;;;;4407181;32;332881;-88
2023/02/14 08:38:32;;;;;;;110.63;66.10;;;;;;;;;;4399263;32;318538;-89
2023/02/14 08:41:01;;;;;;;110.43;59.67;;;;;;;;;;4409183;32;319189;-88
2023/02/14 08:43:29;;;;;;;96.67;51.27;;;;;;;;;;4398707;32;319280;-89
2023/02/14 08:45:56;;;;;;;100.80;54.80;;;;;;;;;;4409329;32;323461;-88
2023/02/14 08:48:25;;;;;;;114.10;58.90;;;;;;;;;;4399391;32;318622;-89
2023/02/14 08:50:52;;;;;;;96.37;59.00;;;;;;;;;;4408728;32;319270;-88
2023/02/14 08:53:20;;;;;;;81.53;48.17;;;;;;;;;;4399881;32;317364;-87
2023/02/14 08:55:48;;;;;;;85.23;50.50;;;;;;;;;;4407828;32;318501;-89
2023/02/14 08:58:15;;;;;;;84.37;50.10;;;;;;;;;;4398152;32;317986;-89
2023/02/14 09:00:43;;;;;;;93.57;55.33;;;;;;;;;;4405714;32;318351;-89
2023/02/14 09:03:10;;;;;;;104.87;53.70;;;;;;;;;;4406709;32;317581;-89
2023/02/14 09:05:37;;;;;;;93.07;54.87;;;;;;;;;;4393424;32;418376;-89
2023/02/14 09:08:04;;;;;;;95.23;54.87;;;;;;;;;;4405753;32;318671;-88
2023/02/14 09:10:31;;;;;;;95.50;53.30;;;;;;;;;;4396322;32;318392;-88
2023/02/14 09:12:58;;;;;;;100.90;55.67;;;;;;;;;;4405382;32;317620;-89
2023/02/14 09:15:25;;;;;;;101.47;58.10;;;;;;;;;;4396735;32;318813;-91
2023/02/14 09:17:53;;;;;;;119.20;70.67;;;;;;;;;;4405888;32;318951;-89
2023/02/14 09:20:20;;;;;;;123.03;66.13;;;;;;;;;;4396323;32;318639;-89
2023/02/14 09:22:47;;;;;;;114.30;66.60;;;;;;;;;;4405974;32;319191;-88
2023/02/14 09:25:14;;;;;;;117.47;65.50;;;;;;;;;;4392607;32;327294;-89
2023/02/14 09:27:41;;;;;;;108.37;64.33;;;;;;;;;;4404718;32;318874;-89
2023/02/14 09:30:10;;;;;;;121.70;68.73;;;;;;;;;;4403795;32;319569;-89
2023/02/14 09:32:37;;;;;;;145.10;85.90;;;;;;;;;;4394659;32;320000;-87
2023/02/14 09:37:50;;;;;;;141.10;83.43;;;;;;;;;;4392894;32;388821;-88
2023/02/14 09:40:19;;;;;;;143.53;82.63;;;;;;;;;;4395249;32;318731;-87
2023/02/14 09:42:55;;;;;;;140.03;84.43;;;;;;;;;;4405419;32;318671;-88
2023/02/14 09:45:26;;;;;;;130.37;78.90;;;;;;;;;;4396723;32;318546;-89
2023/02/14 09:47:57;;;;;;;137.50;77.13;;;;;;;;;;4405620;32;318841;-89
2023/02/14 09:50:33;;;;;;;134.37;78.83;;;;;;;;;;4394389;32;318369;-89
2023/02/14 09:53:05;;;;;;;170.13;100.83;;;;;;;;;;4404181;32;318781;-89
2023/02/14 09:55:39;;;;;;;162.03;88.37;;;;;;;;;;4394830;32;319874;-90
2023/02/14 09:58:13;;;;;;;140.37;84.17;;;;;;;;;;4396220;32;318619;-89
2023/02/14 10:00:45;;;;;;;157.13;90.47;;;;;;;;;;4391698;32;419932;-91
2023/02/14 10:03:32;;;;;;;148.87;87.90;;;;;;;;;;4396696;32;318768;-89
2023/02/14 10:06:07;;;;;;;155.90;85.77;;;;;;;;;;4405054;32;318403;-92
2023/02/14 10:08:47;;;;;;;144.40;82.23;;;;;;;;;;4395348;32;318729;-91
2023/02/14 10:11:19;;;;;;;138.20;81.90;;;;;;;;;;4394769;32;319486;-88
2023/02/14 10:13:50;;;;;;;138.03;79.80;;;;;;;;;;4405590;32;318719;-90
2023/02/14 10:16:23;;;;;;;130.93;72.23;;;;;;;;;;4394783;32;318628;-93
2023/02/14 10:18:54;;;;;;;127.03;73.37;;;;;;;;;;4406673;32;318821;-89
2023/02/14 10:21:25;;;;;;;129.83;69.30;;;;;;;;;;4395113;32;318598;-90
2023/02/14 10:23:58;;;;;;;116.47;71.97;;;;;;;;;;4407059;32;318791;-91
2023/02/14 10:26:30;;;;;;;119.23;70.37;;;;;;;;;;4395595;32;331934;-91
2023/02/14 10:28:57;;;;;;;125.23;73.57;;;;;;;;;;4403599;32;318747;-90
2023/02/14 10:31:37;;;;;;;137.10;75.43;;;;;;;;;;4394675;32;319541;-89
2023/02/14 10:34:13;;;;;;;111.27;65.57;;;;;;;;;;4405543;32;319302;-90
2023/02/14 10:36:50;;;;;;;98.13;61.63;;;;;;;;;;4391767;32;318468;-91
2023/02/14 10:39:45;;;;;;;90.50;54.17;;;;;;;;;;4405806;32;317685;-94
2023/02/14 10:42:21;;;;;;;104.10;56.07;;;;;;;;;;4394887;32;415013;-92
2023/02/14 10:44:57;;;;;;;90.73;51.97;;;;;;;;;;4393908;32;318744;-91
2023/02/14 10:47:39;;;;;;;108.70;57.03;;;;;;;;;;4403131;32;317686;-90
2023/02/14 10:50:15;;;;;;;102.87;61.33;;;;;;;;;;4391897;32;414254;-89
2023/02/14 10:52:56;;;;;;;111.73;64.33;;;;;;;;;;4394221;32;319153;-90
2023/02/14 10:55:32;;;;;;;125.13;69.57;;;;;;;;;;4404065;32;318581;-90
2023/02/14 10:58:01;;;;;;;102.83;58.37;;;;;;;;;;4391123;32;419208;-91
2023/02/14 11:00:32;;;;;;;105.97;59.57;;;;;;;;;;4392977;32;319392;-91
2023/02/14 11:03:04;;;;;;;110.80;56.20;;;;;;;;;;4403702;32;319583;-91
2023/02/14 11:05:34;;;;;;;117.13;59.47;;;;;;;;;;4388260;32;319125;-92
2023/02/14 11:08:14;;;;;;;125.73;64.13;;;;;;;;;;4400682;32;318676;-91
2023/02/14 11:10:41;;;;;;;104.80;57.43;;;;;;;;;;4393198;32;318490;-91
2023/02/14 11:13:27;;;;;;;105.40;61.50;;;;;;;;;;4401106;32;318537;-91
2023/02/14 11:15:59;;;;;;;88.80;55.70;;;;;;;;;;4391563;32;408408;-88
2023/02/14 11:18:31;;;;;;;33.87;23.60;;;;;;;;;;4394391;32;317462;-90
2023/02/14 11:21:06;;;;;;;26.97;18.77;;;;;;;;;;4400860;32;318215;-91
2023/02/14 11:23:36;;;;;;;43.13;24.20;;;;;;;;;;4385624;32;317407;-90
2023/02/14 11:26:05;;;;;;;30.43;20.63;;;;;;;;;;4405593;32;318143;-90
2023/02/14 11:28:34;;;;;;;37.90;24.57;;;;;;;;;;4389266;32;317620;-88
2023/02/14 11:31:02;;;;;;;42.90;27.73;;;;;;;;;;4397961;32;317589;-90
2023/02/14 11:33:39;;;;;;;34.93;23.53;;;;;;;;;;4389250;32;318122;-90
2023/02/14 11:36:11;;;;;;;44.83;27.93;;;;;;;;;;4401513;32;317248;-90
2023/02/14 11:38:41;;;;;;;82.77;38.63;;;;;;;;;;4393634;32;318355;-90
2023/02/14 11:41:11;;;;;;;33.00;19.80;;;;;;;;;;4402020;32;317614;-88
2023/02/14 11:43:39;;;;;;;43.40;22.23;;;;;;;;;;4388430;32;318288;-88
2023/02/14 11:46:12;;;;;;;60.10;33.03;;;;;;;;;;4398017;32;317507;-89
2023/02/14 11:48:39;;;;;;;42.93;25.17;;;;;;;;;;4386633;32;319182;-89
2023/02/14 11:51:09;;;;;;;17.77;14.13;;;;;;;;;;4405529;32;317679;-89
2023/02/14 11:53:45;;;;;;;28.53;17.53;;;;;;;;;;4387882;32;317951;-89
2023/02/14 11:56:13;;;;;;;33.60;19.73;;;;;;;;;;4397055;32;323718;-89
2023/02/14 11:58:45;;;;;;;47.03;26.83;;;;;;;;;;4388599;32;318273;-89
2023/02/14 12:01:21;;;;;;;43.37;23.70;;;;;;;;;;4397665;32;318310;-89
2023/02/14 12:03:49;;;;;;;41.80;25.40;;;;;;;;;;4393354;32;318208;-89
2023/02/14 12:06:24;;;;;;;30.20;20.13;;;;;;;;;;4397474;32;318379;-89
2023/02/14 12:09:10;;;;;;;25.70;17.53;;;;;;;;;;4375303;32;417425;-89
2023/02/14 12:11:37;;;;;;;28.63;15.47;;;;;;;;;;4378799;32;317720;-89
2023/02/14 12:14:04;;;;;;;23.93;16.13;;;;;;;;;;4387423;32;317325;-89
2023/02/14 12:16:38;;;;;;;21.67;14.90;;;;;;;;;;4378383;32;318353;-89
2023/02/14 12:19:08;;;;;;;19.83;14.57;;;;;;;;;;4388798;32;332861;-89
2023/02/14 12:21:48;;;;;;;14.53;12.67;;;;;;;;;;4379669;32;320580;-92
2023/02/14 12:24:26;;;;;;;23.60;15.20;;;;;;;;;;4390176;32;318254;-91
2023/02/14 12:27:01;;;;;;;30.43;18.43;;;;;;;;;;4380969;32;416744;-90
2023/02/14 12:29:33;;;;;;;19.57;14.10;;;;;;;;;;4383439;32;318112;-91
2023/02/14 12:32:05;;;;;;;13.70;9.70;;;;;;;;;;4391696;32;317756;-89
2023/02/14 12:34:32;;;;;;;19.80;13.63;;;;;;;;;;4380212;32;316374;-89
2023/02/14 12:37:11;;;;;;;21.90;13.93;;;;;;;;;;4390312;32;318462;-88
2023/02/14 12:39:54;;;;;;;17.37;11.97;;;;;;;;;;4379709;32;318162;-88
2023/02/14 12:42:37;;;;;;;16.33;10.97;;;;;;;;;;4390949;32;318323;-89
2023/02/14 12:45:12;;;;;;;18.00;12.33;;;;;;;;;;4377239;32;418084;-89
2023/02/14 12:47:48;;;;;;;25.07;12.67;;;;;;;;;;4386419;32;318385;-89
2023/02/14 12:50:34;;;;;;;21.27;16.20;;;;;;;;;;4405524;32;319967;-89
2023/02/14 12:53:38;;;;;;;19.20;13.67;;;;;;;;;;4393682;32;417987;-89
2023/02/14 12:56:21;;;;;;;24.23;16.30;;;;;;;;;;4392719;32;418238;-89
2023/02/14 12:58:58;;;;;;;21.47;14.63;;;;;;;;;;4396510;32;318243;-89
2023/02/14 13:01:39;;;;;;;16.83;11.23;;;;;;;;;;4408738;32;347234;-88
2023/02/14 13:04:39;;;;;;;17.77;12.23;;;;;;;;;;4394271;32;418150;-89
2023/02/14 13:07:12;;;;;;;16.07;9.80;;;;;;;;;;4390605;32;418046;-89
2023/02/14 13:09:47;;;;;;;23.70;9.53;;;;;;;;;;4396218;32;316519;-88
2023/02/14 13:12:28;;;;;;;22.80;11.17;;;;;;;;;;4406026;32;316745;-89
2023/02/14 13:15:05;;;;;;;15.70;10.97;;;;;;;;;;4392408;32;418013;-89
2023/02/14 13:17:38;;;;;;;11.77;7.03;;;;;;;;;;4394839;32;323679;-89
2023/02/14 13:20:23;;;;;;;14.70;7.43;;;;;;;;;;4405191;32;316629;-89
2023/02/14 13:22:51;;;;;;;20.80;9.93;;;;;;;;;;4393231;32;374539;-89
2023/02/14 13:25:29;;;;;;;13.63;9.80;;;;;;;;;;4405368;32;345568;-89
2023/02/14 13:27:58;;;;;;;12.27;8.47;;;;;;;;;;4392554;32;416946;-89
2023/02/14 13:30:28;;;;;;;11.80;8.73;;;;;;;;;;4406229;32;317485;-89
2023/02/14 13:33:00;;;;;;;32.07;12.43;;;;;;;;;;4392581;32;415954;-90
2023/02/14 13:35:28;;;;;;;14.23;11.37;;;;;;;;;;4394976;32;317576;-89
2023/02/14 13:38:00;;;;;;;9.33;7.77;;;;;;;;;;4404056;32;317792;-90
2023/02/14 13:40:29;;;;;;;14.87;10.90;;;;;;;;;;4395685;32;315636;-89
2023/02/14 13:42:58;;;;;;;23.33;16.37;;;;;;;;;;4406228;32;318373;-89
2023/02/14 13:45:53;;;;;;;15.73;12.50;;;;;;;;;;4408064;32;338960;-90
2023/02/14 13:48:23;;;;;;;15.73;11.93;;;;;;;;;;4337640;32;430928;-89
2023/02/14 13:50:52;;;;;;;16.50;12.60;;;;;;;;;;4388181;32;317991;-89
2023/02/14 13:53:35;;;;;;;15.73;11.43;;;;;;;;;;4399133;32;317672;-89
2023/02/14 13:56:04;;;;;;;18.00;12.00;;;;;;;;;;4380763;32;418057;-87
2023/02/14 13:58:33;;;;;;;16.97;11.13;;;;;;;;;;4388159;32;318147;-88
2023/02/14 14:01:31;;;;;;;15.17;11.30;;;;;;;;;;4401900;32;316228;-87
2023/02/14 14:03:59;;;;;;;17.67;13.50;;;;;;;;;;4381931;32;418164;-89
2023/02/14 14:06:27;;;;;;;19.53;14.60;;;;;;;;;;4378369;32;331014;-87
2023/02/14 14:08:55;;;;;;;15.20;11.07;;;;;;;;;;4390596;32;318773;-88
2023/02/14 14:11:57;;;;;;;12.77;9.57;;;;;;;;;;4389943;32;317751;-88
2023/02/14 14:14:35;;;;;;;20.97;9.30;;;;;;;;;;4387259;32;416998;-88
2023/02/14 14:17:05;;;;;;;11.60;7.77;;;;;;;;;;4376926;32;417381;-89
2023/02/14 14:19:40;;;;;;;21.70;14.97;;;;;;;;;;4379846;32;316747;-89
2023/02/14 14:22:09;;;;;;;24.47;14.90;;;;;;;;;;4390390;32;317620;-90
2023/02/14 14:24:38;;;;;;;20.77;16.23;;;;;;;;;;4380316;32;317509;-87
2023/02/14 14:27:12;;;;;;;16.03;12.10;;;;;;;;;;4389656;32;317666;-88
2023/02/14 14:29:46;;;;;;;15.53;12.13;;;;;;;;;;4377469;32;318332;-88
2023/02/14 14:32:20;;;;;;;19.07;14.60;;;;;;;;;;4389266;32;317705;-90
2023/02/14 14:34:51;;;;;;;24.80;16.40;;;;;;;;;;4379944;32;317711;-90
2023/02/14 14:37:21;;;;;;;25.37;16.00;;;;;;;;;;4390609;32;318160;-89
2023/02/14 14:39:53;;;;;;;22.40;14.43;;;;;;;;;;4381794;32;318482;-90
2023/02/14 14:42:20;;;;;;;20.67;14.70;;;;;;;;;;4391538;32;317816;-91